Station: Mount Ginini  

  Atmospheric Gas Attenuation - ITU Rec 676-11   ----------------- dB/100km -----------------
Date Time Temp RH % AH g/m3 Dew Point Wind Direction Speed kph Gust kph Barometer mB Rainfall Since 9am 24GHz 47GHz 76GHz 122GHz 134GHz 241GHz
06/05 04:20 2.9 88 5.2 1.1 7 11 1013.1 0 12.7 23.4 30.9 80.6 64.6 218.6
06/05 04:10 2.9 88 5.2 1.1 9 13 1013.1 0 12.7 23.4 30.9 80.6 64.6 218.6
06/05 04:00 2.6 91 5.27 1.3 11 17 1013.1 0 12.9 23.6 31.3 81.7 65.8 222.8
06/05 03:50 2.8 91 5.34 1.5 11 13 1013.1 0 13.0 23.6 31.5 82.3 66.6 225.5
06/05 03:40 2.9 92 5.44 1.7 7 11 1013.1 0 13.3 23.8 31.9 83.2 67.8 229.9
06/05 03:30 3 92 5.48 1.8 7 13 1013.1 0 13.3 23.8 32.0 83.6 68.3 231.5
06/05 03:20 2.9 90 5.32 1.4 6 9 1013.1 0 13.0 23.6 31.4 81.9 66.2 224.3
06/05 03:10 2.8 90 5.28 1.3 9 11 1013.1 0 12.9 23.5 31.3 81.6 65.8 222.7
06/05 03:00 3 89 5.3 1.4 9 15 1013.1 0 12.9 23.5 31.3 81.6 65.9 223.0
06/05 02:50 3.1 86 5.15 1 9 13 1013.1 0 12.6 23.2 30.6 79.9 63.8 215.7
06/05 02:40 3 87 5.18 1.1 9 13 1013.1 0 12.7 23.3 30.8 80.3 64.3 217.4
06/05 02:30 2.9 90 5.32 1.4 9 15 1013.1 0 13.0 23.6 31.4 81.9 66.2 224.3
06/05 02:20 2.7 90 5.25 1.2 9 13 1013.1 0 12.8 23.5 31.2 81.4 65.5 221.5
06/05 02:10 2.9 91 5.38 1.6 11 15 1013.1 0 13.1 23.7 31.6 82.6 67.0 227.1
06/05 02:00 3.2 92 5.55 2 11 19 1013.1 0 13.5 23.9 32.2 84.1 69.1 234.3
06/05 01:50 3.2 95 5.73 2.5 13 15 1013.1 0 13.9 24.2 33.0 86.1 71.5 242.8
06/05 01:40 2.8 97 5.7 2.4 7 13 1013.1 0 13.8 24.2 33.0 86.2 71.5 242.6
06/05 01:30 2.8 97 5.7 2.4 7 13 1013.1 0 13.8 24.2 33.0 86.2 71.5 242.6
06/05 01:20 2.8 97 5.7 2.4 7 11 1013.1 0 13.8 24.2 33.0 86.2 71.5 242.6
06/05 01:10 3 97 5.77 2.6 9 13 1013.1 0 14.0 24.3 33.2 86.8 72.2 245.4
06/05 01:00 2.9 97 5.73 2.5 9 15 1013.1 0 13.9 24.2 33.1 86.4 71.8 243.8
06/05 00:50 3.1 98 5.87 2.8 9 13 1013.1 0 14.2 24.4 33.6 87.8 73.5 249.9
06/05 00:40 3.1 98 5.87 2.8 7 11 1013.1 0 14.2 24.4 33.6 87.8 73.5 249.9
06/05 00:30 3 97 5.77 2.6 9 13 1013.1 0 14.0 24.3 33.2 86.8 72.2 245.4
06/05 00:20 3.2 97 5.85 2.8 11 15 1013.1 0 14.1 24.4 33.5 87.4 73.2 248.6
06/05 00:10 3.3 97 5.89 2.9 1013.1 0 14.2 24.4 33.6 87.8 73.6 250.2
06/05 00:00 3.2 97 5.85 2.8 11 15 1013.1 0 14.1 24.4 33.5 87.4 73.2 248.6
05/05 23:50 3 94 5.59 2.1 11 13 1013.1 0 13.6 24.0 32.5 84.8 69.8 236.8
05/05 23:40 3.1 94 5.63 2.2 9 11 1013.1 0 13.7 24.0 32.6 85.1 70.2 238.4
05/05 23:30 3 93 5.53 2 11 15 1013.1 0 13.4 23.9 32.2 84.1 69.0 233.9
05/05 23:20 3.1 92 5.51 1.9 11 15 1013.1 0 13.4 23.8 32.1 83.8 68.6 232.7
05/05 23:10 3 91 5.42 1.7 13 15 1013.1 0 13.2 23.7 31.8 82.9 67.5 228.7
05/05 23:00 3.4 90 5.5 1.9 13 19 1013.1 0 13.4 23.7 31.9 83.4 68.2 231.3
05/05 22:50 3.7 89 5.55 2.1 13 19 1013.1 0 13.5 23.7 32.0 83.6 68.6 232.8
05/05 22:40 3.7 89 5.55 2.1 13 17 1013.1 0 13.5 23.7 32.0 83.6 68.6 232.8
05/05 22:30 4 87 5.54 2 15 20 1013.1 0 13.4 23.6 31.9 83.2 68.2 231.4
05/05 22:20 4.1 87 5.57 2.1 13 17 1013.1 0 13.5 23.7 31.9 83.4 68.5 232.5
05/05 22:10 4.3 86 5.58 2.2 13 19 1013.1 0 13.5 23.6 31.9 83.3 68.5 232.4
05/05 22:00 4.4 85 5.55 2.1 13 22 1013.1 0 13.4 23.5 31.7 82.8 68.0 230.7
05/05 21:50 4.5 84 5.53 2 15 20 1013.1 0 13.4 23.5 31.6 82.5 67.7 229.5
05/05 21:40 4.6 84 5.56 2.1 11 19 1013.1 0 13.4 23.5 31.7 82.7 68.0 230.6
05/05 21:30 4.7 83 5.53 2.1 7 19 1013.1 0 13.4 23.4 31.5 82.3 67.5 228.9
05/05 21:20 4.6 83 5.5 2 6 11 1013.1 0 13.3 23.4 31.5 82.1 67.2 227.8
05/05 21:10 4.7 83 5.53 2.1 9 15 1013.1 0 13.4 23.4 31.5 82.3 67.5 228.9
05/05 21:00 4.8 82 5.5 2 11 20 1013.1 0 13.3 23.4 31.4 81.9 67.0 227.2
05/05 20:50 4.8 82 5.5 2 15 19 1013.1 0 13.3 23.4 31.4 81.9 67.0 227.2
05/05 20:40 4.9 82 5.54 2.1 9 17 1013.1 0 13.4 23.4 31.5 82.2 67.4 228.8
05/05 20:30 4.8 82 5.5 2 6 17 1013.1 0 13.3 23.4 31.4 81.9 67.0 227.2
05/05 20:20 5 82 5.58 2.2 4 13 1013.1 0 13.5 23.4 31.6 82.5 67.9 230.3
05/05 20:10 5.1 81 5.54 2.1 9 19 1013.1 0 13.4 23.3 31.4 82.0 67.3 228.2
05/05 20:00 5.3 80 5.55 2.1 6 15 1013.1 0 13.4 23.3 31.4 81.9 67.2 228.1
05/05 19:50 5.2 81 5.58 2.2 6 13 1013.1 0 13.5 23.4 31.5 82.3 67.7 229.8
05/05 19:40 5 81 5.51 2 7 13 1013.1 0 13.3 23.3 31.3 81.8 67.0 227.1
05/05 19:30 5 81 5.51 2 6 11 1013.1 0 13.3 23.3 31.3 81.8 67.0 227.1
05/05 19:20 5.1 83 5.68 2.5 4 9 1013.1 0 13.7 23.6 32.0 83.5 69.1 234.7
05/05 19:10 4.6 84 5.56 2.1 7 11 1013.1 0 13.4 23.5 31.7 82.7 68.0 230.6
05/05 19:00 4.4 88 5.75 2.6 6 11 1013.1 0 13.9 23.9 32.5 85.0 70.7 240.1
05/05 18:50 2.4 94 5.37 1.5 6 7 1013.1 0 13.1 23.8 31.8 83.0 67.3 228.1
05/05 18:40 2.5 94 5.41 1.6 7 11 1013.1 0 13.2 23.8 31.9 83.3 67.8 229.7
05/05 18:30 2.6 94 5.45 1.7 11 19 1013.1 0 13.3 23.9 32.1 83.7 68.2 231.3
05/05 18:20 2.6 94 5.45 1.7 11 13 1013.1 0 13.3 23.9 32.1 83.7 68.2 231.3
05/05 18:10 2.6 93 5.39 1.6 13 17 1013.1 0 13.2 23.8 31.8 83.0 67.4 228.4
05/05 18:00 2.8 93 5.46 1.8 15 20 1013.1 0 13.3 23.8 32.0 83.6 68.2 231.2
05/05 17:50 2.8 94 5.52 1.9 15 19 1013.1 0 13.4 23.9 32.3 84.2 69.0 234.0
05/05 17:40 3 93 5.53 2 13 15 1013.1 0 13.4 23.9 32.2 84.1 69.0 233.9
05/05 17:30 3.3 92 5.59 2.1 17 24 1013.1 0 13.6 23.9 32.3 84.4 69.5 235.9
05/05 17:20 3.6 91 5.64 2.3 19 22 1013.1 0 13.7 23.9 32.4 84.7 69.9 237.3
05/05 17:10 4 89 5.66 2.4 19 24 1013.1 0 13.7 23.8 32.3 84.5 69.8 237.1
05/05 17:00 4.4 88 5.75 2.6 15 26 1013.1 0 13.9 23.9 32.5 85.0 70.7 240.1
05/05 16:50 4.8 86 5.77 2.7 17 24 1013.1 0 13.9 23.8 32.5 84.8 70.6 239.8
05/05 16:40 5.3 85 5.9 3 11 17 1013.1 0 14.2 23.9 32.8 85.6 71.9 244.3
05/05 16:30 5.9 82 5.92 3.1 15 24 1013.1 0 14.2 23.7 32.6 85.2 71.6 243.4
05/05 16:20 6.3 80 5.93 3.1 13 26 1013.1 0 14.2 23.7 32.5 84.9 71.3 242.6
05/05 16:10 6.6 79 5.97 3.2 15 22 1013.1 0 14.3 23.6 32.5 85.0 71.6 243.6
05/05 16:00 6.7 77 5.85 3 15 26 1013.1 0 14.0 23.4 32.0 83.6 69.9 237.7
05/05 15:50 7 76 5.89 3.1 15 20 1013.1 0 14.1 23.4 32.1 83.7 70.2 238.7
05/05 15:40 7.2 76 5.97 3.3 11 17 1013.1 0 14.2 23.5 32.3 84.3 71.0 241.7
05/05 15:30 7.4 76 6.05 3.5 15 26 1013.1 0 14.4 23.6 32.5 85.0 71.9 244.8
05/05 15:20 7.6 73 5.88 3.1 17 22 1013.1 0 14.0 23.2 31.8 83.0 69.5 236.4
05/05 15:10 7.5 75 6.01 3.4 11 17 1013.1 0 14.3 23.5 32.3 84.4 71.3 242.6
05/05 15:00 7.7 75 6.08 3.6 15 28 1013.1 0 14.5 23.5 32.5 85.0 72.0 245.2
05/05 14:50 8.2 74 6.2 3.9 13 19 1013.1 0 14.7 23.6 32.8 85.7 73.1 249.1
05/05 14:40 8.2 72 6.03 3.5 11 22 1013.1 0 14.3 23.3 32.1 83.9 70.9 241.4
05/05 14:30 8.2 73 6.12 3.7 11 24 1013.1 0 14.5 23.5 32.5 84.8 72.1 245.5
05/05 14:20 8.4 73 6.2 3.8 7 15 1013.1 0 14.7 23.5 32.7 85.5 72.9 248.5
05/05 14:10 8.5 69 5.89 3.1 13 20 1013.1 0 14.0 23.0 31.5 82.1 68.8 234.2
05/05 14:00 8.4 73 6.2 3.8 13 26 1013.1 0 14.7 23.5 32.7 85.5 72.9 248.5
05/05 13:50 8 73 6.04 3.5 7 13 1013.1 0 14.4 23.4 32.2 84.2 71.2 242.5
05/05 13:40 8.2 72 6.03 3.5 11 17 1013.1 0 14.3 23.3 32.1 83.9 70.9 241.4
05/05 13:30 8.1 71 5.91 3.2 13 24 1013.1 0 14.1 23.2 31.7 82.8 69.4 236.3
05/05 13:20 8.1 69 5.74 2.8 11 22 1013.1 0 13.7 22.9 31.0 81.0 67.3 228.6
05/05 13:10 8.3 70 5.9 3.2 9 13 1013.1 0 14.0 23.1 31.6 82.4 69.1 235.2
05/05 13:00 8.6 71 6.1 3.6 11 22 1013.1 0 14.5 23.3 32.2 84.2 71.4 243.3
05/05 12:50 8.1 68 5.66 2.6 13 22 1013.1 0 13.5 22.8 30.7 80.2 66.3 225.1
05/05 12:40 7.9 66 5.42 2 9 20 1013.1 0 13.0 22.4 29.9 77.9 63.4 214.9
05/05 12:30 8 67 5.54 2.3 11 22 1013.1 0 13.3 22.6 30.3 79.0 64.8 220.0
05/05 12:20 8 66 5.46 2 7 13 1013.1 0 13.1 22.5 30.0 78.2 63.8 216.5
05/05 12:10 7.8 68 5.55 2.3 11 15 1013.1 0 13.3 22.7 30.4 79.3 65.1 221.0
05/05 12:00 8.2 66 5.53 2.2 7 17 1013.1 0 13.3 22.5 30.2 78.7 64.5 219.0
05/05 11:50 7.8 67 5.47 2.1 11 17 1013.1 0 13.1 22.5 30.1 78.5 64.1 217.4

Last Refresh: 06-May-2026 03:58:44

Bureau of Meteorology